sensor_id;sensor_type;location;lat;lon;timestamp;P1;durP1;ratioP1;P2;durP2;ratioP2
65896;SDS011;52677;50.898;10.854;2023-12-22T00:00:17;11.90;;;2.55;;
65896;SDS011;52677;50.898;10.854;2023-12-22T00:02:17;12.30;;;3.10;;
65896;SDS011;52677;50.898;10.854;2023-12-22T00:04:17;12.07;;;2.50;;
65896;SDS011;52677;50.898;10.854;2023-12-22T00:06:18;16.67;;;3.60;;
65896;SDS011;52677;50.898;10.854;2023-12-22T00:08:18;13.23;;;2.50;;
65896;SDS011;52677;50.898;10.854;2023-12-22T00:10:18;16.60;;;4.05;;
65896;SDS011;52677;50.898;10.854;2023-12-22T00:12:19;15.38;;;3.25;;
65896;SDS011;52677;50.898;10.854;2023-12-22T00:14:19;12.80;;;2.47;;
65896;SDS011;52677;50.898;10.854;2023-12-22T00:16:19;15.73;;;2.90;;
65896;SDS011;52677;50.898;10.854;2023-12-22T00:18:19;13.27;;;2.95;;
65896;SDS011;52677;50.898;10.854;2023-12-22T00:20:20;9.23;;;2.60;;
65896;SDS011;52677;50.898;10.854;2023-12-22T00:22:26;19.17;;;2.83;;
65896;SDS011;52677;50.898;10.854;2023-12-22T00:24:26;10.13;;;2.30;;
65896;SDS011;52677;50.898;10.854;2023-12-22T00:26:26;16.20;;;3.50;;
65896;SDS011;52677;50.898;10.854;2023-12-22T00:28:27;10.45;;;2.40;;
65896;SDS011;52677;50.898;10.854;2023-12-22T00:30:27;8.00;;;2.05;;
65896;SDS011;52677;50.898;10.854;2023-12-22T00:32:27;13.75;;;3.58;;
65896;SDS011;52677;50.898;10.854;2023-12-22T00:34:28;17.42;;;2.97;;
65896;SDS011;52677;50.898;10.854;2023-12-22T00:36:28;9.30;;;2.95;;
65896;SDS011;52677;50.898;10.854;2023-12-22T00:38:28;15.48;;;3.20;;
65896;SDS011;52677;50.898;10.854;2023-12-22T00:40:28;16.00;;;2.80;;
65896;SDS011;52677;50.898;10.854;2023-12-22T00:42:29;11.43;;;2.78;;
65896;SDS011;52677;50.898;10.854;2023-12-22T00:44:29;9.40;;;2.78;;
65896;SDS011;52677;50.898;10.854;2023-12-22T00:46:30;16.77;;;2.85;;
65896;SDS011;52677;50.898;10.854;2023-12-22T00:48:30;12.02;;;2.60;;
65896;SDS011;52677;50.898;10.854;2023-12-22T00:50:30;18.48;;;3.20;;
65896;SDS011;52677;50.898;10.854;2023-12-22T00:52:31;8.98;;;2.75;;
65896;SDS011;52677;50.898;10.854;2023-12-22T00:54:31;9.90;;;2.47;;
65896;SDS011;52677;50.898;10.854;2023-12-22T00:56:32;13.32;;;2.70;;
65896;SDS011;52677;50.898;10.854;2023-12-22T00:58:32;8.95;;;2.72;;
65896;SDS011;52677;50.898;10.854;2023-12-22T01:00:32;10.25;;;2.42;;
65896;SDS011;52677;50.898;10.854;2023-12-22T01:02:32;9.18;;;2.70;;
65896;SDS011;52677;50.898;10.854;2023-12-22T01:04:33;14.65;;;3.08;;
65896;SDS011;52677;50.898;10.854;2023-12-22T01:06:36;13.18;;;2.85;;
65896;SDS011;52677;50.898;10.854;2023-12-22T01:08:37;12.93;;;2.45;;
65896;SDS011;52677;50.898;10.854;2023-12-22T01:10:38;10.65;;;2.83;;
65896;SDS011;52677;50.898;10.854;2023-12-22T01:12:39;13.50;;;2.60;;
65896;SDS011;52677;50.898;10.854;2023-12-22T01:14:39;12.02;;;1.95;;
65896;SDS011;52677;50.898;10.854;2023-12-22T01:16:39;13.02;;;2.60;;
65896;SDS011;52677;50.898;10.854;2023-12-22T01:18:39;6.93;;;2.72;;
65896;SDS011;52677;50.898;10.854;2023-12-22T01:22:42;11.50;;;2.15;;
65896;SDS011;52677;50.898;10.854;2023-12-22T01:24:43;8.68;;;2.22;;
65896;SDS011;52677;50.898;10.854;2023-12-22T01:26:45;8.82;;;2.97;;
65896;SDS011;52677;50.898;10.854;2023-12-22T01:28:45;8.90;;;2.63;;
65896;SDS011;52677;50.898;10.854;2023-12-22T01:30:45;13.27;;;2.15;;
65896;SDS011;52677;50.898;10.854;2023-12-22T01:32:46;6.13;;;1.73;;
65896;SDS011;52677;50.898;10.854;2023-12-22T01:34:46;5.93;;;1.95;;
65896;SDS011;52677;50.898;10.854;2023-12-22T01:36:47;9.40;;;1.85;;
65896;SDS011;52677;50.898;10.854;2023-12-22T01:38:47;10.40;;;2.17;;
65896;SDS011;52677;50.898;10.854;2023-12-22T01:40:47;8.48;;;1.67;;
65896;SDS011;52677;50.898;10.854;2023-12-22T01:42:48;9.77;;;2.25;;
65896;SDS011;52677;50.898;10.854;2023-12-22T01:44:48;6.82;;;2.85;;
65896;SDS011;52677;50.898;10.854;2023-12-22T01:46:49;5.97;;;1.90;;
65896;SDS011;52677;50.898;10.854;2023-12-22T01:48:50;9.93;;;2.83;;
65896;SDS011;52677;50.898;10.854;2023-12-22T01:50:51;10.55;;;1.80;;
65896;SDS011;52677;50.898;10.854;2023-12-22T01:54:54;8.55;;;1.80;;
65896;SDS011;52677;50.898;10.854;2023-12-22T01:56:55;6.32;;;1.65;;
65896;SDS011;52677;50.898;10.854;2023-12-22T01:58:57;7.65;;;2.85;;
65896;SDS011;52677;50.898;10.854;2023-12-22T02:01:00;8.93;;;2.10;;
65896;SDS011;52677;50.898;10.854;2023-12-22T02:03:01;4.30;;;1.88;;
65896;SDS011;52677;50.898;10.854;2023-12-22T02:05:02;14.00;;;1.83;;
65896;SDS011;52677;50.898;10.854;2023-12-22T02:07:03;6.72;;;1.92;;
65896;SDS011;52677;50.898;10.854;2023-12-22T02:09:03;8.25;;;1.80;;
65896;SDS011;52677;50.898;10.854;2023-12-22T02:11:06;11.27;;;2.47;;
65896;SDS011;52677;50.898;10.854;2023-12-22T02:13:07;11.90;;;2.42;;
65896;SDS011;52677;50.898;10.854;2023-12-22T02:15:09;7.80;;;1.88;;
65896;SDS011;52677;50.898;10.854;2023-12-22T02:19:43;4.95;;;1.70;;
65896;SDS011;52677;50.898;10.854;2023-12-22T02:24:15;16.50;;;2.60;;
65896;SDS011;52677;50.898;10.854;2023-12-22T02:26:25;9.75;;;1.85;;
65896;SDS011;52677;50.898;10.854;2023-12-22T02:28:33;8.70;;;2.28;;
65896;SDS011;52677;50.898;10.854;2023-12-22T02:30:39;10.03;;;2.50;;
65896;SDS011;52677;50.898;10.854;2023-12-22T02:32:50;8.65;;;2.72;;
65896;SDS011;52677;50.898;10.854;2023-12-22T02:34:52;9.13;;;1.70;;
65896;SDS011;52677;50.898;10.854;2023-12-22T02:36:54;9.07;;;1.88;;
65896;SDS011;52677;50.898;10.854;2023-12-22T02:38:55;8.88;;;2.92;;
65896;SDS011;52677;50.898;10.854;2023-12-22T02:40:57;10.23;;;2.85;;
65896;SDS011;52677;50.898;10.854;2023-12-22T02:42:58;13.95;;;3.20;;
65896;SDS011;52677;50.898;10.854;2023-12-22T02:45:00;9.63;;;1.83;;
65896;SDS011;52677;50.898;10.854;2023-12-22T02:47:01;6.43;;;2.20;;
65896;SDS011;52677;50.898;10.854;2023-12-22T02:49:01;9.90;;;2.08;;
65896;SDS011;52677;50.898;10.854;2023-12-22T02:51:01;3.75;;;1.40;;
65896;SDS011;52677;50.898;10.854;2023-12-22T02:53:02;7.28;;;2.03;;
65896;SDS011;52677;50.898;10.854;2023-12-22T02:55:03;6.90;;;1.75;;
65896;SDS011;52677;50.898;10.854;2023-12-22T02:57:03;9.27;;;2.05;;
65896;SDS011;52677;50.898;10.854;2023-12-22T02:59:04;8.02;;;1.90;;
65896;SDS011;52677;50.898;10.854;2023-12-22T03:01:04;4.82;;;1.60;;
65896;SDS011;52677;50.898;10.854;2023-12-22T03:03:04;7.43;;;1.63;;
65896;SDS011;52677;50.898;10.854;2023-12-22T03:05:05;5.45;;;1.70;;
65896;SDS011;52677;50.898;10.854;2023-12-22T03:07:06;13.57;;;2.10;;
65896;SDS011;52677;50.898;10.854;2023-12-22T03:09:06;7.75;;;2.17;;
65896;SDS011;52677;50.898;10.854;2023-12-22T03:11:06;8.77;;;1.60;;
65896;SDS011;52677;50.898;10.854;2023-12-22T03:13:07;5.13;;;1.83;;
65896;SDS011;52677;50.898;10.854;2023-12-22T03:15:07;9.23;;;2.40;;
65896;SDS011;52677;50.898;10.854;2023-12-22T03:17:08;6.45;;;1.73;;
65896;SDS011;52677;50.898;10.854;2023-12-22T03:19:09;6.22;;;1.90;;
65896;SDS011;52677;50.898;10.854;2023-12-22T03:21:16;6.95;;;1.60;;
65896;SDS011;52677;50.898;10.854;2023-12-22T03:23:18;8.32;;;1.80;;
65896;SDS011;52677;50.898;10.854;2023-12-22T03:25:18;9.30;;;2.30;;
65896;SDS011;52677;50.898;10.854;2023-12-22T03:27:19;5.28;;;1.60;;
65896;SDS011;52677;50.898;10.854;2023-12-22T03:29:20;6.30;;;2.00;;
65896;SDS011;52677;50.898;10.854;2023-12-22T03:31:20;6.25;;;1.95;;
65896;SDS011;52677;50.898;10.854;2023-12-22T03:33:21;3.65;;;1.48;;
65896;SDS011;52677;50.898;10.854;2023-12-22T03:35:21;8.18;;;1.98;;
65896;SDS011;52677;50.898;10.854;2023-12-22T03:37:21;2.97;;;1.77;;
65896;SDS011;52677;50.898;10.854;2023-12-22T03:39:22;5.88;;;1.05;;
65896;SDS011;52677;50.898;10.854;2023-12-22T03:41:22;7.53;;;1.75;;
65896;SDS011;52677;50.898;10.854;2023-12-22T03:43:22;9.95;;;1.58;;
65896;SDS011;52677;50.898;10.854;2023-12-22T03:45:22;3.90;;;1.60;;
65896;SDS011;52677;50.898;10.854;2023-12-22T03:47:23;6.28;;;1.70;;
65896;SDS011;52677;50.898;10.854;2023-12-22T03:49:23;5.85;;;1.55;;
65896;SDS011;52677;50.898;10.854;2023-12-22T03:51:23;4.72;;;1.65;;
65896;SDS011;52677;50.898;10.854;2023-12-22T03:53:24;9.38;;;2.65;;
65896;SDS011;52677;50.898;10.854;2023-12-22T03:55:24;8.73;;;1.30;;
65896;SDS011;52677;50.898;10.854;2023-12-22T03:57:24;11.00;;;2.33;;
65896;SDS011;52677;50.898;10.854;2023-12-22T03:59:24;9.38;;;1.65;;
65896;SDS011;52677;50.898;10.854;2023-12-22T04:01:25;12.63;;;1.95;;
65896;SDS011;52677;50.898;10.854;2023-12-22T04:03:25;5.57;;;1.70;;
65896;SDS011;52677;50.898;10.854;2023-12-22T04:05:26;5.38;;;1.70;;
65896;SDS011;52677;50.898;10.854;2023-12-22T04:07:26;4.40;;;1.80;;
65896;SDS011;52677;50.898;10.854;2023-12-22T04:09:26;9.95;;;1.65;;
65896;SDS011;52677;50.898;10.854;2023-12-22T04:11:27;5.00;;;1.55;;
65896;SDS011;52677;50.898;10.854;2023-12-22T04:13:27;5.60;;;1.60;;
65896;SDS011;52677;50.898;10.854;2023-12-22T04:15:27;10.32;;;1.90;;
65896;SDS011;52677;50.898;10.854;2023-12-22T04:17:28;12.80;;;1.85;;
65896;SDS011;52677;50.898;10.854;2023-12-22T04:19:28;6.93;;;1.90;;
65896;SDS011;52677;50.898;10.854;2023-12-22T04:21:28;3.65;;;1.48;;
65896;SDS011;52677;50.898;10.854;2023-12-22T04:23:29;2.10;;;1.30;;
65896;SDS011;52677;50.898;10.854;2023-12-22T04:25:29;7.10;;;2.70;;
65896;SDS011;52677;50.898;10.854;2023-12-22T04:27:29;6.07;;;1.33;;
65896;SDS011;52677;50.898;10.854;2023-12-22T04:29:30;5.40;;;1.52;;
65896;SDS011;52677;50.898;10.854;2023-12-22T04:31:30;3.80;;;1.15;;
65896;SDS011;52677;50.898;10.854;2023-12-22T04:33:30;4.28;;;1.08;;
65896;SDS011;52677;50.898;10.854;2023-12-22T04:35:30;6.15;;;1.45;;
65896;SDS011;52677;50.898;10.854;2023-12-22T04:37:31;8.65;;;1.40;;
65896;SDS011;52677;50.898;10.854;2023-12-22T04:39:31;4.75;;;1.45;;
65896;SDS011;52677;50.898;10.854;2023-12-22T04:41:31;3.08;;;1.00;;
65896;SDS011;52677;50.898;10.854;2023-12-22T04:43:31;3.47;;;1.15;;
65896;SDS011;52677;50.898;10.854;2023-12-22T04:45:32;2.95;;;1.10;;
65896;SDS011;52677;50.898;10.854;2023-12-22T04:47:32;3.92;;;1.75;;
65896;SDS011;52677;50.898;10.854;2023-12-22T04:49:32;7.60;;;1.38;;
65896;SDS011;52677;50.898;10.854;2023-12-22T04:51:33;6.18;;;1.70;;
65896;SDS011;52677;50.898;10.854;2023-12-22T04:53:33;4.05;;;1.20;;
65896;SDS011;52677;50.898;10.854;2023-12-22T04:55:33;2.78;;;1.02;;
65896;SDS011;52677;50.898;10.854;2023-12-22T04:57:33;9.40;;;1.60;;
65896;SDS011;52677;50.898;10.854;2023-12-22T04:59:34;2.75;;;0.90;;
65896;SDS011;52677;50.898;10.854;2023-12-22T05:01:34;5.22;;;1.50;;
65896;SDS011;52677;50.898;10.854;2023-12-22T05:03:35;7.97;;;1.23;;
65896;SDS011;52677;50.898;10.854;2023-12-22T05:05:35;8.55;;;1.60;;
65896;SDS011;52677;50.898;10.854;2023-12-22T05:07:35;5.15;;;1.73;;
65896;SDS011;52677;50.898;10.854;2023-12-22T05:09:36;5.00;;;1.23;;
65896;SDS011;52677;50.898;10.854;2023-12-22T05:11:36;6.45;;;1.70;;
65896;SDS011;52677;50.898;10.854;2023-12-22T05:13:37;4.10;;;1.38;;
65896;SDS011;52677;50.898;10.854;2023-12-22T05:15:37;7.00;;;1.67;;
65896;SDS011;52677;50.898;10.854;2023-12-22T05:17:38;9.48;;;1.70;;
65896;SDS011;52677;50.898;10.854;2023-12-22T05:19:40;6.35;;;1.65;;
65896;SDS011;52677;50.898;10.854;2023-12-22T05:21:40;5.57;;;2.40;;
65896;SDS011;52677;50.898;10.854;2023-12-22T05:23:41;14.30;;;6.50;;
65896;SDS011;52677;50.898;10.854;2023-12-22T05:25:41;9.30;;;3.85;;
65896;SDS011;52677;50.898;10.854;2023-12-22T05:27:42;11.27;;;3.13;;
65896;SDS011;52677;50.898;10.854;2023-12-22T05:29:43;4.45;;;1.67;;
65896;SDS011;52677;50.898;10.854;2023-12-22T05:31:43;4.93;;;1.85;;
65896;SDS011;52677;50.898;10.854;2023-12-22T05:33:43;6.60;;;1.85;;
65896;SDS011;52677;50.898;10.854;2023-12-22T05:35:44;8.93;;;1.55;;
65896;SDS011;52677;50.898;10.854;2023-12-22T05:37:44;9.20;;;1.42;;
65896;SDS011;52677;50.898;10.854;2023-12-22T05:39:44;5.10;;;1.40;;
65896;SDS011;52677;50.898;10.854;2023-12-22T05:41:45;7.60;;;1.45;;
65896;SDS011;52677;50.898;10.854;2023-12-22T05:43:45;8.38;;;2.00;;
65896;SDS011;52677;50.898;10.854;2023-12-22T05:45:45;4.00;;;1.30;;
65896;SDS011;52677;50.898;10.854;2023-12-22T05:47:46;9.93;;;1.83;;
65896;SDS011;52677;50.898;10.854;2023-12-22T05:49:46;4.22;;;1.65;;
65896;SDS011;52677;50.898;10.854;2023-12-22T05:51:47;7.40;;;1.85;;
65896;SDS011;52677;50.898;10.854;2023-12-22T05:53:47;13.70;;;1.73;;
65896;SDS011;52677;50.898;10.854;2023-12-22T05:55:47;5.97;;;1.60;;
65896;SDS011;52677;50.898;10.854;2023-12-22T05:57:48;8.00;;;1.77;;
65896;SDS011;52677;50.898;10.854;2023-12-22T05:59:49;8.35;;;1.83;;
65896;SDS011;52677;50.898;10.854;2023-12-22T06:01:53;12.50;;;2.47;;
65896;SDS011;52677;50.898;10.854;2023-12-22T06:03:54;8.65;;;2.25;;
65896;SDS011;52677;50.898;10.854;2023-12-22T06:05:54;8.57;;;1.83;;
65896;SDS011;52677;50.898;10.854;2023-12-22T06:07:55;6.43;;;1.70;;
65896;SDS011;52677;50.898;10.854;2023-12-22T06:09:55;6.95;;;2.25;;
65896;SDS011;52677;50.898;10.854;2023-12-22T06:11:55;10.20;;;2.42;;
65896;SDS011;52677;50.898;10.854;2023-12-22T06:13:56;6.60;;;2.70;;
65896;SDS011;52677;50.898;10.854;2023-12-22T06:15:56;5.60;;;1.65;;
65896;SDS011;52677;50.898;10.854;2023-12-22T06:17:56;5.93;;;1.48;;
65896;SDS011;52677;50.898;10.854;2023-12-22T06:19:58;7.45;;;2.05;;
65896;SDS011;52677;50.898;10.854;2023-12-22T06:21:58;4.75;;;1.02;;
65896;SDS011;52677;50.898;10.854;2023-12-22T06:24:00;6.60;;;1.53;;
65896;SDS011;52677;50.898;10.854;2023-12-22T06:26:00;2.17;;;1.05;;
65896;SDS011;52677;50.898;10.854;2023-12-22T06:28:02;6.38;;;1.48;;
65896;SDS011;52677;50.898;10.854;2023-12-22T06:30:04;3.67;;;1.10;;
65896;SDS011;52677;50.898;10.854;2023-12-22T06:32:05;4.83;;;1.70;;
65896;SDS011;52677;50.898;10.854;2023-12-22T06:34:06;3.97;;;1.17;;
65896;SDS011;52677;50.898;10.854;2023-12-22T06:36:06;3.13;;;1.10;;
65896;SDS011;52677;50.898;10.854;2023-12-22T06:38:07;2.67;;;1.13;;
65896;SDS011;52677;50.898;10.854;2023-12-22T06:40:08;4.35;;;1.10;;
65896;SDS011;52677;50.898;10.854;2023-12-22T06:42:08;1.50;;;1.00;;
65896;SDS011;52677;50.898;10.854;2023-12-22T06:44:11;2.90;;;1.50;;
65896;SDS011;52677;50.898;10.854;2023-12-22T06:46:17;2.67;;;2.10;;
65896;SDS011;52677;50.898;10.854;2023-12-22T06:48:18;4.40;;;1.80;;
65896;SDS011;52677;50.898;10.854;2023-12-22T06:50:19;4.50;;;1.40;;
65896;SDS011;52677;50.898;10.854;2023-12-22T06:52:19;3.35;;;1.40;;
65896;SDS011;52677;50.898;10.854;2023-12-22T06:54:20;5.55;;;1.42;;
65896;SDS011;52677;50.898;10.854;2023-12-22T06:56:21;3.90;;;1.45;;
65896;SDS011;52677;50.898;10.854;2023-12-22T06:58:25;2.95;;;1.40;;
65896;SDS011;52677;50.898;10.854;2023-12-22T07:00:26;5.80;;;1.75;;
65896;SDS011;52677;50.898;10.854;2023-12-22T07:02:26;3.03;;;1.20;;
65896;SDS011;52677;50.898;10.854;2023-12-22T07:07:06;2.22;;;1.15;;
65896;SDS011;52677;50.898;10.854;2023-12-22T07:11:12;4.93;;;2.38;;
65896;SDS011;52677;50.898;10.854;2023-12-22T07:13:13;2.10;;;1.23;;
65896;SDS011;52677;50.898;10.854;2023-12-22T07:15:13;4.63;;;1.35;;
65896;SDS011;52677;50.898;10.854;2023-12-22T07:17:13;2.90;;;1.27;;
65896;SDS011;52677;50.898;10.854;2023-12-22T07:19:14;3.45;;;1.40;;
65896;SDS011;52677;50.898;10.854;2023-12-22T07:21:17;3.17;;;2.03;;
65896;SDS011;52677;50.898;10.854;2023-12-22T07:23:18;2.22;;;1.52;;
65896;SDS011;52677;50.898;10.854;2023-12-22T07:25:18;4.55;;;1.90;;
65896;SDS011;52677;50.898;10.854;2023-12-22T07:27:19;4.40;;;1.58;;
65896;SDS011;52677;50.898;10.854;2023-12-22T07:29:20;4.80;;;1.77;;
65896;SDS011;52677;50.898;10.854;2023-12-22T07:31:20;4.65;;;2.28;;
65896;SDS011;52677;50.898;10.854;2023-12-22T07:33:20;2.50;;;1.60;;
65896;SDS011;52677;50.898;10.854;2023-12-22T07:35:21;6.72;;;1.45;;
65896;SDS011;52677;50.898;10.854;2023-12-22T07:37:21;4.75;;;1.60;;
65896;SDS011;52677;50.898;10.854;2023-12-22T07:39:21;5.15;;;2.55;;
65896;SDS011;52677;50.898;10.854;2023-12-22T07:41:22;3.65;;;1.77;;
65896;SDS011;52677;50.898;10.854;2023-12-22T07:43:22;6.72;;;1.50;;
65896;SDS011;52677;50.898;10.854;2023-12-22T07:45:23;3.10;;;1.50;;
65896;SDS011;52677;50.898;10.854;2023-12-22T07:47:23;4.82;;;1.80;;
65896;SDS011;52677;50.898;10.854;2023-12-22T07:49:24;6.50;;;1.85;;
65896;SDS011;52677;50.898;10.854;2023-12-22T07:51:24;8.23;;;1.50;;
65896;SDS011;52677;50.898;10.854;2023-12-22T07:53:24;5.57;;;1.90;;
65896;SDS011;52677;50.898;10.854;2023-12-22T07:55:25;5.22;;;1.75;;
65896;SDS011;52677;50.898;10.854;2023-12-22T07:57:25;5.53;;;2.17;;
65896;SDS011;52677;50.898;10.854;2023-12-22T07:59:25;5.95;;;1.85;;
65896;SDS011;52677;50.898;10.854;2023-12-22T08:01:26;9.50;;;2.38;;
65896;SDS011;52677;50.898;10.854;2023-12-22T08:03:26;7.32;;;2.83;;
65896;SDS011;52677;50.898;10.854;2023-12-22T08:05:26;7.60;;;2.13;;
65896;SDS011;52677;50.898;10.854;2023-12-22T08:07:27;12.90;;;3.38;;
65896;SDS011;52677;50.898;10.854;2023-12-22T08:09:27;8.20;;;2.83;;
65896;SDS011;52677;50.898;10.854;2023-12-22T08:11:27;6.22;;;1.95;;
65896;SDS011;52677;50.898;10.854;2023-12-22T08:13:28;3.88;;;2.10;;
65896;SDS011;52677;50.898;10.854;2023-12-22T08:15:28;5.35;;;1.25;;
65896;SDS011;52677;50.898;10.854;2023-12-22T08:17:29;3.47;;;1.35;;
65896;SDS011;52677;50.898;10.854;2023-12-22T08:19:29;3.83;;;1.30;;
65896;SDS011;52677;50.898;10.854;2023-12-22T08:21:30;5.70;;;2.00;;
65896;SDS011;52677;50.898;10.854;2023-12-22T08:23:30;3.22;;;1.33;;
65896;SDS011;52677;50.898;10.854;2023-12-22T08:25:30;4.25;;;1.23;;
65896;SDS011;52677;50.898;10.854;2023-12-22T08:27:31;6.28;;;1.40;;
65896;SDS011;52677;50.898;10.854;2023-12-22T08:29:32;2.22;;;1.30;;
65896;SDS011;52677;50.898;10.854;2023-12-22T08:31:33;8.63;;;2.53;;
65896;SDS011;52677;50.898;10.854;2023-12-22T08:33:33;4.97;;;1.73;;
65896;SDS011;52677;50.898;10.854;2023-12-22T08:35:33;7.85;;;1.65;;
65896;SDS011;52677;50.898;10.854;2023-12-22T08:37:34;3.60;;;1.52;;
65896;SDS011;52677;50.898;10.854;2023-12-22T08:39:35;3.40;;;1.38;;
65896;SDS011;52677;50.898;10.854;2023-12-22T08:41:35;2.42;;;1.30;;
65896;SDS011;52677;50.898;10.854;2023-12-22T08:43:37;5.87;;;1.50;;
65896;SDS011;52677;50.898;10.854;2023-12-22T08:45:38;3.83;;;1.15;;
65896;SDS011;52677;50.898;10.854;2023-12-22T08:47:39;4.18;;;1.40;;
65896;SDS011;52677;50.898;10.854;2023-12-22T08:49:39;5.13;;;1.08;;
65896;SDS011;52677;50.898;10.854;2023-12-22T08:51:39;2.92;;;1.10;;
65896;SDS011;52677;50.898;10.854;2023-12-22T08:53:40;3.65;;;1.25;;
65896;SDS011;52677;50.898;10.854;2023-12-22T08:55:40;4.22;;;1.13;;
65896;SDS011;52677;50.898;10.854;2023-12-22T08:57:40;3.38;;;1.10;;
65896;SDS011;52677;50.898;10.854;2023-12-22T08:59:40;4.00;;;1.20;;
65896;SDS011;52677;50.898;10.854;2023-12-22T09:01:41;6.65;;;1.85;;
65896;SDS011;52677;50.898;10.854;2023-12-22T09:03:42;1.70;;;1.20;;
65896;SDS011;52677;50.898;10.854;2023-12-22T09:05:45;5.43;;;1.35;;
65896;SDS011;52677;50.898;10.854;2023-12-22T09:07:47;6.25;;;1.55;;
65896;SDS011;52677;50.898;10.854;2023-12-22T09:09:47;3.35;;;1.50;;
65896;SDS011;52677;50.898;10.854;2023-12-22T09:11:47;5.65;;;1.65;;
65896;SDS011;52677;50.898;10.854;2023-12-22T09:13:48;7.68;;;1.90;;
65896;SDS011;52677;50.898;10.854;2023-12-22T09:15:48;3.15;;;1.50;;
65896;SDS011;52677;50.898;10.854;2023-12-22T09:17:49;8.05;;;1.85;;
65896;SDS011;52677;50.898;10.854;2023-12-22T09:21:51;7.83;;;2.13;;
65896;SDS011;52677;50.898;10.854;2023-12-22T09:23:52;7.00;;;1.83;;
65896;SDS011;52677;50.898;10.854;2023-12-22T09:25:52;5.95;;;2.30;;
65896;SDS011;52677;50.898;10.854;2023-12-22T09:27:53;8.55;;;2.10;;
65896;SDS011;52677;50.898;10.854;2023-12-22T09:29:53;5.53;;;1.50;;
65896;SDS011;52677;50.898;10.854;2023-12-22T09:31:53;3.42;;;1.50;;
65896;SDS011;52677;50.898;10.854;2023-12-22T09:33:54;6.95;;;1.63;;
65896;SDS011;52677;50.898;10.854;2023-12-22T09:35:54;6.28;;;1.35;;
65896;SDS011;52677;50.898;10.854;2023-12-22T09:37:54;8.93;;;1.48;;
65896;SDS011;52677;50.898;10.854;2023-12-22T09:39:54;5.88;;;1.63;;
65896;SDS011;52677;50.898;10.854;2023-12-22T09:41:55;3.50;;;1.50;;
65896;SDS011;52677;50.898;10.854;2023-12-22T09:43:55;9.00;;;3.65;;
65896;SDS011;52677;50.898;10.854;2023-12-22T09:45:57;3.35;;;1.50;;
65896;SDS011;52677;50.898;10.854;2023-12-22T09:47:59;7.40;;;1.80;;
65896;SDS011;52677;50.898;10.854;2023-12-22T09:50:01;4.55;;;1.50;;
65896;SDS011;52677;50.898;10.854;2023-12-22T09:52:02;1.58;;;1.00;;
65896;SDS011;52677;50.898;10.854;2023-12-22T09:54:05;7.90;;;1.63;;
65896;SDS011;52677;50.898;10.854;2023-12-22T09:56:06;6.27;;;1.50;;
65896;SDS011;52677;50.898;10.854;2023-12-22T09:58:08;5.88;;;1.52;;
65896;SDS011;52677;50.898;10.854;2023-12-22T10:00:10;3.63;;;1.30;;
65896;SDS011;52677;50.898;10.854;2023-12-22T10:02:12;3.53;;;1.50;;
65896;SDS011;52677;50.898;10.854;2023-12-22T10:04:13;3.50;;;1.42;;
65896;SDS011;52677;50.898;10.854;2023-12-22T10:06:14;6.25;;;2.20;;
65896;SDS011;52677;50.898;10.854;2023-12-22T10:08:17;7.25;;;1.40;;
65896;SDS011;52677;50.898;10.854;2023-12-22T10:12:19;4.78;;;1.20;;
65896;SDS011;52677;50.898;10.854;2023-12-22T10:14:21;5.03;;;1.35;;
65896;SDS011;52677;50.898;10.854;2023-12-22T10:16:22;3.70;;;1.15;;
65896;SDS011;52677;50.898;10.854;2023-12-22T10:18:23;4.90;;;1.67;;
65896;SDS011;52677;50.898;10.854;2023-12-22T10:20:24;3.65;;;1.20;;
65896;SDS011;52677;50.898;10.854;2023-12-22T10:22:24;9.00;;;1.65;;
65896;SDS011;52677;50.898;10.854;2023-12-22T10:24:40;2.10;;;1.15;;
65896;SDS011;52677;50.898;10.854;2023-12-22T10:26:47;4.28;;;1.33;;
65896;SDS011;52677;50.898;10.854;2023-12-22T10:28:47;5.60;;;2.50;;
65896;SDS011;52677;50.898;10.854;2023-12-22T10:30:49;14.68;;;3.55;;
65896;SDS011;52677;50.898;10.854;2023-12-22T10:32:50;6.43;;;1.92;;
65896;SDS011;52677;50.898;10.854;2023-12-22T10:34:51;5.28;;;1.70;;
65896;SDS011;52677;50.898;10.854;2023-12-22T10:36:52;6.03;;;1.50;;
65896;SDS011;52677;50.898;10.854;2023-12-22T10:38:53;5.47;;;1.13;;
65896;SDS011;52677;50.898;10.854;2023-12-22T10:40:53;3.80;;;1.20;;
65896;SDS011;52677;50.898;10.854;2023-12-22T10:42:54;2.05;;;1.05;;
65896;SDS011;52677;50.898;10.854;2023-12-22T10:44:55;4.95;;;1.00;;
65896;SDS011;52677;50.898;10.854;2023-12-22T10:46:56;1.85;;;0.70;;
65896;SDS011;52677;50.898;10.854;2023-12-22T10:48:58;1.98;;;0.90;;
65896;SDS011;52677;50.898;10.854;2023-12-22T10:50:58;3.88;;;0.90;;
65896;SDS011;52677;50.898;10.854;2023-12-22T10:52:58;1.95;;;0.90;;
65896;SDS011;52677;50.898;10.854;2023-12-22T10:54:59;1.45;;;1.00;;
65896;SDS011;52677;50.898;10.854;2023-12-22T10:57:00;5.22;;;1.10;;
65896;SDS011;52677;50.898;10.854;2023-12-22T10:59:01;1.95;;;0.63;;
65896;SDS011;52677;50.898;10.854;2023-12-22T11:03:06;1.02;;;0.90;;
65896;SDS011;52677;50.898;10.854;2023-12-22T11:05:11;4.00;;;0.95;;
65896;SDS011;52677;50.898;10.854;2023-12-22T11:07:12;3.20;;;0.80;;
65896;SDS011;52677;50.898;10.854;2023-12-22T11:09:14;0.90;;;0.77;;
65896;SDS011;52677;50.898;10.854;2023-12-22T11:11:20;1.48;;;0.90;;
65896;SDS011;52677;50.898;10.854;2023-12-22T11:13:30;6.03;;;0.95;;
65896;SDS011;52677;50.898;10.854;2023-12-22T11:15:32;1.65;;;0.95;;
65896;SDS011;52677;50.898;10.854;2023-12-22T11:17:34;2.88;;;0.73;;
65896;SDS011;52677;50.898;10.854;2023-12-22T11:19:35;2.83;;;1.00;;
65896;SDS011;52677;50.898;10.854;2023-12-22T11:21:38;3.53;;;0.93;;
65896;SDS011;52677;50.898;10.854;2023-12-22T11:23:40;2.40;;;0.88;;
65896;SDS011;52677;50.898;10.854;2023-12-22T11:25:42;1.27;;;0.80;;
65896;SDS011;52677;50.898;10.854;2023-12-22T11:27:44;1.95;;;1.08;;
65896;SDS011;52677;50.898;10.854;2023-12-22T11:29:47;2.13;;;1.20;;
65896;SDS011;52677;50.898;10.854;2023-12-22T11:31:51;2.33;;;1.08;;
65896;SDS011;52677;50.898;10.854;2023-12-22T11:33:56;1.67;;;1.00;;
65896;SDS011;52677;50.898;10.854;2023-12-22T11:35:59;2.67;;;1.10;;
65896;SDS011;52677;50.898;10.854;2023-12-22T11:38:01;2.47;;;0.93;;
65896;SDS011;52677;50.898;10.854;2023-12-22T11:40:03;1.15;;;1.02;;
65896;SDS011;52677;50.898;10.854;2023-12-22T11:42:03;3.38;;;1.00;;
65896;SDS011;52677;50.898;10.854;2023-12-22T11:44:06;2.88;;;1.08;;
65896;SDS011;52677;50.898;10.854;2023-12-22T11:46:07;2.22;;;1.10;;
65896;SDS011;52677;50.898;10.854;2023-12-22T11:48:09;3.42;;;1.65;;
65896;SDS011;52677;50.898;10.854;2023-12-22T11:50:10;3.15;;;1.50;;
65896;SDS011;52677;50.898;10.854;2023-12-22T11:52:14;1.25;;;1.00;;
65896;SDS011;52677;50.898;10.854;2023-12-22T11:56:47;1.75;;;1.20;;
65896;SDS011;52677;50.898;10.854;2023-12-22T11:58:48;2.63;;;1.23;;
65896;SDS011;52677;50.898;10.854;2023-12-22T12:00:52;2.72;;;1.17;;
65896;SDS011;52677;50.898;10.854;2023-12-22T12:02:56;4.03;;;1.40;;
65896;SDS011;52677;50.898;10.854;2023-12-22T12:04:57;3.17;;;1.15;;
65896;SDS011;52677;50.898;10.854;2023-12-22T12:07:25;2.30;;;1.20;;
65896;SDS011;52677;50.898;10.854;2023-12-22T12:09:47;2.58;;;1.20;;
65896;SDS011;52677;50.898;10.854;2023-12-22T12:13:58;2.15;;;1.10;;
65896;SDS011;52677;50.898;10.854;2023-12-22T12:16:11;1.17;;;0.77;;
65896;SDS011;52677;50.898;10.854;2023-12-22T12:18:23;2.17;;;0.93;;
65896;SDS011;52677;50.898;10.854;2023-12-22T12:20:24;2.90;;;1.08;;
65896;SDS011;52677;50.898;10.854;2023-12-22T12:22:24;3.15;;;1.00;;